Time;durP1;ratioP1;P1;durP2;ratioP2;P2;SDS_P1;SDS_P2;PMS_P1;PMS_P2;Temp;Humidity;BMP_temperature;BMP_pressure;BME280_temperature;BME280_humidity;BME280_pressure;Samples;Min_cycle;Max_cycle;Signal;HPM_P1;HPM_P2
2021/08/16 00:02:12;;;;;;;10.10;8.95;;;;;;;;;;5071184;28;20021;-70
2021/08/16 00:04:38;;;;;;;9.10;8.20;;;;;;;;;;5070919;28;20020;-70
2021/08/16 00:07:04;;;;;;;8.77;7.88;;;;;;;;;;5074227;28;20445;-70
2021/08/16 00:09:30;;;;;;;9.20;8.30;;;;;;;;;;5073319;28;20492;-70
2021/08/16 00:11:57;;;;;;;9.05;8.05;;;;;;;;;;5069314;28;20087;-71
2021/08/16 00:14:23;;;;;;;11.63;9.23;;;;;;;;;;5069125;28;20085;-71
2021/08/16 00:16:49;;;;;;;11.13;9.00;;;;;;;;;;5072433;28;20778;-71
2021/08/16 00:19:15;;;;;;;11.88;9.18;;;;;;;;;;5071210;28;20045;-69
2021/08/16 00:21:41;;;;;;;11.52;10.23;;;;;;;;;;5074344;28;20028;-69
2021/08/16 00:24:07;;;;;;;11.05;9.68;;;;;;;;;;5072369;28;20157;-70
2021/08/16 00:26:33;;;;;;;11.43;8.93;;;;;;;;;;5073192;28;20484;-69
2021/08/16 00:29:00;;;;;;;11.25;8.63;;;;;;;;;;5069530;28;20234;-69
2021/08/16 00:31:29;;;;;;;10.43;7.45;;;;;;;;;;5070832;28;20028;-69
2021/08/16 00:33:56;;;;;;;10.75;8.15;;;;;;;;;;5068522;28;20054;-69
2021/08/16 00:36:22;;;;;;;9.52;7.57;;;;;;;;;;5072714;28;20377;-70
2021/08/16 00:38:49;;;;;;;10.57;7.78;;;;;;;;;;5070386;28;20481;-72
2021/08/16 00:41:17;;;;;;;13.10;8.15;;;;;;;;;;5066882;28;20461;-70
2021/08/16 00:43:43;;;;;;;9.68;7.53;;;;;;;;;;5075161;28;20588;-70
2021/08/16 00:46:09;;;;;;;8.43;7.07;;;;;;;;;;5072294;28;20072;-69
2021/08/16 00:48:36;;;;;;;9.38;6.70;;;;;;;;;;5067539;28;20574;-71
2021/08/16 00:51:02;;;;;;;7.80;6.78;;;;;;;;;;5073355;28;20031;-70
2021/08/16 00:53:30;;;;;;;10.30;7.50;;;;;;;;;;5069744;28;20218;-71
2021/08/16 00:55:57;;;;;;;8.52;6.78;;;;;;;;;;5068191;28;20082;-70
2021/08/16 00:58:24;;;;;;;9.70;6.95;;;;;;;;;;5070636;28;20024;-69
2021/08/16 01:00:54;;;;;;;9.98;7.28;;;;;;;;;;5072067;28;20488;-69
2021/08/16 01:03:21;;;;;;;10.15;7.03;;;;;;;;;;5071849;28;20701;-69
2021/08/16 01:05:47;;;;;;;8.85;7.38;;;;;;;;;;5072103;28;20443;-70
2021/08/16 01:08:13;;;;;;;7.38;6.68;;;;;;;;;;5067705;28;20028;-69
2021/08/16 01:10:39;;;;;;;9.07;6.95;;;;;;;;;;5069735;28;20039;-69
2021/08/16 01:13:05;;;;;;;10.45;6.78;;;;;;;;;;5072907;28;20032;-70
2021/08/16 01:15:33;;;;;;;10.43;6.88;;;;;;;;;;5070599;28;20130;-70
2021/08/16 01:17:59;;;;;;;8.00;7.20;;;;;;;;;;5069269;28;20029;-70
2021/08/16 01:20:26;;;;;;;9.68;7.53;;;;;;;;;;5069891;28;20066;-69
2021/08/16 01:22:52;;;;;;;9.05;8.15;;;;;;;;;;5069208;28;20024;-70
2021/08/16 01:25:18;;;;;;;8.10;7.32;;;;;;;;;;5068931;28;20024;-69
2021/08/16 01:27:45;;;;;;;10.20;8.10;;;;;;;;;;5071052;28;20027;-69
2021/08/16 01:30:13;;;;;;;10.30;7.70;;;;;;;;;;5069599;28;20082;-69
2021/08/16 01:32:39;;;;;;;9.02;7.65;;;;;;;;;;5067260;28;20039;-69
2021/08/16 01:35:06;;;;;;;9.27;8.25;;;;;;;;;;5069430;28;20179;-71
2021/08/16 01:37:32;;;;;;;10.35;8.13;;;;;;;;;;5071221;28;20039;-69
2021/08/16 01:39:58;;;;;;;8.77;7.43;;;;;;;;;;5072065;28;20025;-70
2021/08/16 01:42:24;;;;;;;8.57;7.80;;;;;;;;;;5071526;28;20031;-72
2021/08/16 01:44:50;;;;;;;10.32;8.23;;;;;;;;;;5068859;28;20028;-69
2021/08/16 01:47:16;;;;;;;8.65;7.50;;;;;;;;;;5067738;28;20028;-69
2021/08/16 01:49:42;;;;;;;8.43;7.63;;;;;;;;;;5078373;28;20500;-69
2021/08/16 01:52:09;;;;;;;10.55;7.90;;;;;;;;;;5067204;28;20107;-69
2021/08/16 01:54:36;;;;;;;9.82;7.85;;;;;;;;;;5068112;28;20076;-70
2021/08/16 01:57:02;;;;;;;9.57;8.07;;;;;;;;;;5073566;28;20389;-70
2021/08/16 01:59:28;;;;;;;10.40;8.00;;;;;;;;;;5067501;28;20435;-71
2021/08/16 02:01:54;;;;;;;9.07;8.18;;;;;;;;;;5070945;28;20024;-70
2021/08/16 02:04:20;;;;;;;9.32;8.43;;;;;;;;;;5072150;28;20055;-71
2021/08/16 02:06:47;;;;;;;13.68;8.57;;;;;;;;;;5069266;28;20054;-70
2021/08/16 02:09:13;;;;;;;10.27;9.18;;;;;;;;;;5068914;28;20034;-69
2021/08/16 02:11:39;;;;;;;10.57;8.45;;;;;;;;;;5066717;28;20101;-69
2021/08/16 02:14:05;;;;;;;10.15;8.93;;;;;;;;;;5070158;28;20048;-71
2021/08/16 02:16:31;;;;;;;11.20;9.13;;;;;;;;;;5066815;28;20021;-70
2021/08/16 02:18:57;;;;;;;9.32;8.38;;;;;;;;;;5070088;28;20496;-71
2021/08/16 02:21:23;;;;;;;9.82;8.93;;;;;;;;;;5068802;28;20029;-69
2021/08/16 02:23:51;;;;;;;10.48;9.40;;;;;;;;;;5066953;28;20046;-70
2021/08/16 02:26:17;;;;;;;11.38;9.15;;;;;;;;;;5069995;28;20040;-69
2021/08/16 02:28:43;;;;;;;10.35;8.90;;;;;;;;;;5066687;28;20016;-70
2021/08/16 02:31:09;;;;;;;11.50;9.07;;;;;;;;;;5066947;28;20039;-70
2021/08/16 02:33:35;;;;;;;10.27;9.20;;;;;;;;;;5068268;28;20039;-69
2021/08/16 02:36:01;;;;;;;10.70;9.70;;;;;;;;;;5067850;28;20042;-70
2021/08/16 02:38:27;;;;;;;10.00;9.05;;;;;;;;;;5069207;28;20385;-69
2021/08/16 02:40:54;;;;;;;10.70;9.63;;;;;;;;;;5066966;28;20519;-70
2021/08/16 02:43:20;;;;;;;9.70;8.70;;;;;;;;;;5066600;28;20052;-70
2021/08/16 02:45:46;;;;;;;11.07;8.90;;;;;;;;;;5068156;28;20029;-70
2021/08/16 02:48:12;;;;;;;10.43;9.38;;;;;;;;;;5068762;28;20484;-71
2021/08/16 02:50:38;;;;;;;10.25;9.23;;;;;;;;;;5068057;28;20135;-69
2021/08/16 02:53:05;;;;;;;11.48;9.35;;;;;;;;;;5068519;28;20391;-71
2021/08/16 02:55:31;;;;;;;10.68;9.57;;;;;;;;;;5068038;28;20091;-71
2021/08/16 02:57:57;;;;;;;9.45;8.50;;;;;;;;;;5067648;28;20032;-69
2021/08/16 03:00:23;;;;;;;10.05;9.05;;;;;;;;;;5070029;28;20035;-70
2021/08/16 03:02:49;;;;;;;10.65;8.55;;;;;;;;;;5061872;28;20020;-70
2021/08/16 03:05:15;;;;;;;10.65;9.48;;;;;;;;;;5066354;28;20020;-69
2021/08/16 03:07:41;;;;;;;9.48;8.52;;;;;;;;;;5076173;28;20073;-70
2021/08/16 03:10:08;;;;;;;9.45;8.45;;;;;;;;;;5066407;28;20491;-69
2021/08/16 03:12:35;;;;;;;9.38;8.57;;;;;;;;;;5065886;28;20110;-70
2021/08/16 03:15:01;;;;;;;10.88;9.50;;;;;;;;;;5070877;28;20101;-69
2021/08/16 03:17:27;;;;;;;11.32;9.00;;;;;;;;;;5064965;28;20044;-69
2021/08/16 03:19:53;;;;;;;9.48;8.52;;;;;;;;;;5068572;28;20059;-69
2021/08/16 03:22:19;;;;;;;10.40;9.30;;;;;;;;;;5067819;28;20021;-70
2021/08/16 03:24:45;;;;;;;9.82;8.70;;;;;;;;;;5068874;28;20085;-69
2021/08/16 03:27:12;;;;;;;10.75;9.30;;;;;;;;;;5067197;28;20099;-69
2021/08/16 03:29:38;;;;;;;9.32;8.05;;;;;;;;;;5065590;28;20073;-71
2021/08/16 03:32:04;;;;;;;10.32;9.20;;;;;;;;;;5070145;28;20415;-70
2021/08/16 03:34:31;;;;;;;9.73;8.73;;;;;;;;;;5067304;28;20040;-69
2021/08/16 03:36:57;;;;;;;9.85;8.85;;;;;;;;;;5068409;28;20504;-69
2021/08/16 03:39:23;;;;;;;9.02;8.10;;;;;;;;;;5067612;28;20040;-70
2021/08/16 03:41:49;;;;;;;9.77;8.05;;;;;;;;;;5065794;28;20020;-69
2021/08/16 03:44:16;;;;;;;9.02;8.13;;;;;;;;;;5064903;28;20055;-69
2021/08/16 03:46:42;;;;;;;9.68;8.68;;;;;;;;;;5067150;28;20028;-69
2021/08/16 03:49:08;;;;;;;9.30;8.40;;;;;;;;;;5064845;28;20528;-69
2021/08/16 03:51:35;;;;;;;9.88;8.52;;;;;;;;;;5067258;28;20024;-69
2021/08/16 03:54:01;;;;;;;9.80;8.32;;;;;;;;;;5065804;28;20164;-69
2021/08/16 03:56:27;;;;;;;9.43;8.32;;;;;;;;;;5070383;28;20023;-69
2021/08/16 03:58:53;;;;;;;10.40;8.30;;;;;;;;;;5066066;28;20036;-70
2021/08/16 04:01:19;;;;;;;9.35;8.45;;;;;;;;;;5066474;28;20090;-69
2021/08/16 04:03:45;;;;;;;8.85;7.95;;;;;;;;;;5067377;28;20032;-72
2021/08/16 04:06:12;;;;;;;9.50;8.52;;;;;;;;;;5064568;28;20089;-69
2021/08/16 04:08:39;;;;;;;9.93;8.32;;;;;;;;;;5067813;28;20511;-71
2021/08/16 04:11:06;;;;;;;9.18;8.35;;;;;;;;;;5068225;28;20032;-69
2021/08/16 04:13:33;;;;;;;9.77;8.50;;;;;;;;;;5070483;28;20047;-71
2021/08/16 04:15:59;;;;;;;8.63;7.65;;;;;;;;;;5066610;28;20036;-70
2021/08/16 04:18:25;;;;;;;8.82;7.93;;;;;;;;;;5063634;28;20037;-69
2021/08/16 04:20:53;;;;;;;8.68;7.88;;;;;;;;;;5066934;28;20054;-70
2021/08/16 04:23:19;;;;;;;8.55;7.75;;;;;;;;;;5067410;28;20047;-69
2021/08/16 04:25:45;;;;;;;9.02;8.13;;;;;;;;;;5063901;28;20047;-71
2021/08/16 04:28:11;;;;;;;9.05;7.63;;;;;;;;;;5066051;28;20020;-69
2021/08/16 04:30:37;;;;;;;9.00;8.10;;;;;;;;;;5071683;28;20676;-69
2021/08/16 04:33:04;;;;;;;10.80;8.18;;;;;;;;;;5067140;28;20116;-69
2021/08/16 04:35:30;;;;;;;9.52;8.00;;;;;;;;;;5064787;28;20056;-70
2021/08/16 04:37:56;;;;;;;8.57;7.75;;;;;;;;;;5064632;28;20408;-70
2021/08/16 04:40:23;;;;;;;10.65;8.45;;;;;;;;;;5065465;28;20050;-69
2021/08/16 04:42:49;;;;;;;11.35;7.95;;;;;;;;;;5064989;28;20024;-70
2021/08/16 04:45:15;;;;;;;13.00;9.30;;;;;;;;;;5067022;28;20665;-68
2021/08/16 04:47:43;;;;;;;9.73;8.73;;;;;;;;;;5067253;28;20032;-70
2021/08/16 04:50:09;;;;;;;9.60;8.43;;;;;;;;;;5067595;28;20483;-69
2021/08/16 04:52:35;;;;;;;8.45;7.65;;;;;;;;;;5066311;28;20035;-71
2021/08/16 04:55:01;;;;;;;8.45;7.65;;;;;;;;;;5066533;28;20037;-69
2021/08/16 04:57:31;;;;;;;9.02;8.15;;;;;;;;;;5065725;28;20028;-69
2021/08/16 04:59:58;;;;;;;12.70;8.20;;;;;;;;;;5063245;28;20029;-69
2021/08/16 05:02:24;;;;;;;10.20;8.63;;;;;;;;;;5066786;28;20381;-70
2021/08/16 05:04:54;;;;;;;12.57;8.45;;;;;;;;;;5067895;28;20527;-72
2021/08/16 05:07:21;;;;;;;8.93;8.07;;;;;;;;;;5066032;28;20472;-72
2021/08/16 05:09:48;;;;;;;11.35;7.95;;;;;;;;;;5063669;28;20323;-72
2021/08/16 05:12:14;;;;;;;8.82;8.02;;;;;;;;;;5067586;28;20016;-72
2021/08/16 05:14:40;;;;;;;10.35;8.40;;;;;;;;;;5066287;28;20032;-72
2021/08/16 05:17:06;;;;;;;10.35;9.02;;;;;;;;;;5065318;28;20024;-72
2021/08/16 05:19:37;;;;;;;10.70;9.40;;;;;;;;;;5063637;28;20052;-72
2021/08/16 05:22:05;;;;;;;12.90;8.80;;;;;;;;;;5067510;28;20035;-72
2021/08/16 05:24:31;;;;;;;9.10;8.13;;;;;;;;;;5064831;28;20367;-72
2021/08/16 05:26:57;;;;;;;9.90;8.45;;;;;;;;;;5064870;28;20464;-72
2021/08/16 05:29:23;;;;;;;9.73;8.82;;;;;;;;;;5064809;28;20033;-72
2021/08/16 05:31:49;;;;;;;8.63;7.80;;;;;;;;;;5070409;28;20029;-72
2021/08/16 05:34:15;;;;;;;10.43;9.32;;;;;;;;;;5064507;28;20043;-72
2021/08/16 05:36:42;;;;;;;9.70;8.70;;;;;;;;;;5061824;28;20026;-71
2021/08/16 05:39:08;;;;;;;10.75;8.98;;;;;;;;;;5071796;28;20035;-72
2021/08/16 05:41:34;;;;;;;11.35;9.00;;;;;;;;;;5064434;28;20036;-72
2021/08/16 05:44:00;;;;;;;11.63;9.15;;;;;;;;;;5064231;28;20469;-71
2021/08/16 05:46:26;;;;;;;9.02;8.23;;;;;;;;;;5064290;28;20040;-71
2021/08/16 05:48:52;;;;;;;9.00;8.20;;;;;;;;;;5065830;28;20016;-71
2021/08/16 05:51:18;;;;;;;11.95;8.57;;;;;;;;;;5065744;28;20023;-72
2021/08/16 05:53:45;;;;;;;9.20;8.30;;;;;;;;;;5064075;28;20040;-71
2021/08/16 05:56:11;;;;;;;10.20;9.30;;;;;;;;;;5065494;28;20389;-73
2021/08/16 05:58:37;;;;;;;10.38;9.38;;;;;;;;;;5064310;28;20012;-72
2021/08/16 06:01:03;;;;;;;10.65;9.65;;;;;;;;;;5062759;28;20044;-71
2021/08/16 06:03:29;;;;;;;9.70;8.68;;;;;;;;;;5066215;28;20024;-72
2021/08/16 06:05:55;;;;;;;10.13;9.07;;;;;;;;;;5065728;28;20603;-72
2021/08/16 06:08:22;;;;;;;9.27;8.32;;;;;;;;;;5064625;28;20499;-72
2021/08/16 06:10:48;;;;;;;9.52;7.97;;;;;;;;;;5064050;28;20572;-71
2021/08/16 06:13:14;;;;;;;9.15;8.25;;;;;;;;;;5071080;28;20188;-71
2021/08/16 06:15:40;;;;;;;9.27;8.00;;;;;;;;;;5064365;28;20424;-71
2021/08/16 06:18:06;;;;;;;8.27;7.47;;;;;;;;;;5062828;28;20028;-71
2021/08/16 06:20:32;;;;;;;9.65;7.60;;;;;;;;;;5068788;28;20067;-71
2021/08/16 06:22:58;;;;;;;9.68;7.28;;;;;;;;;;5067683;28;20048;-72
2021/08/16 06:25:25;;;;;;;8.65;7.85;;;;;;;;;;5070634;28;20021;-71
2021/08/16 06:27:51;;;;;;;9.30;8.10;;;;;;;;;;5069580;28;20034;-72
2021/08/16 06:30:17;;;;;;;8.40;7.53;;;;;;;;;;5068079;28;20028;-72
2021/08/16 06:32:45;;;;;;;8.50;7.68;;;;;;;;;;5067868;28;20028;-72
2021/08/16 06:35:14;;;;;;;10.23;7.72;;;;;;;;;;5068144;28;20051;-71
2021/08/16 06:37:40;;;;;;;9.15;8.20;;;;;;;;;;5069666;28;20447;-73
2021/08/16 06:40:07;;;;;;;8.75;7.95;;;;;;;;;;5068367;28;20029;-73
2021/08/16 06:42:34;;;;;;;10.70;8.30;;;;;;;;;;5070549;28;20411;-72
2021/08/16 06:45:01;;;;;;;8.48;7.68;;;;;;;;;;5068796;28;20115;-72
2021/08/16 06:47:27;;;;;;;9.15;7.90;;;;;;;;;;5069483;28;20020;-72
2021/08/16 06:49:53;;;;;;;11.63;8.98;;;;;;;;;;5068536;28;20385;-72
2021/08/16 06:52:19;;;;;;;8.68;7.63;;;;;;;;;;5068228;28;20395;-72
2021/08/16 06:54:46;;;;;;;8.85;7.57;;;;;;;;;;5066068;28;20032;-73
2021/08/16 06:57:12;;;;;;;8.32;7.53;;;;;;;;;;5070376;28;20027;-72
2021/08/16 06:59:38;;;;;;;9.30;8.32;;;;;;;;;;5068673;28;20501;-72
2021/08/16 07:02:04;;;;;;;9.02;7.53;;;;;;;;;;5068789;28;20059;-72
2021/08/16 07:04:30;;;;;;;7.85;7.15;;;;;;;;;;5065704;28;20383;-72
2021/08/16 07:06:57;;;;;;;10.77;8.45;;;;;;;;;;5069007;28;20098;-71
2021/08/16 07:09:23;;;;;;;9.38;8.43;;;;;;;;;;5070097;28;20025;-71
2021/08/16 07:11:49;;;;;;;11.35;8.20;;;;;;;;;;5066581;28;20059;-73
2021/08/16 07:14:15;;;;;;;8.85;7.97;;;;;;;;;;5061607;28;20146;-72
2021/08/16 07:16:41;;;;;;;8.80;7.93;;;;;;;;;;5070170;28;20013;-72
2021/08/16 07:19:07;;;;;;;10.07;8.48;;;;;;;;;;5067921;28;20045;-72
2021/08/16 07:21:33;;;;;;;10.95;8.25;;;;;;;;;;5066919;28;20033;-72
2021/08/16 07:24:00;;;;;;;10.07;8.50;;;;;;;;;;5070219;28;20026;-73
2021/08/16 07:26:26;;;;;;;10.48;8.00;;;;;;;;;;5068399;28;20242;-72
2021/08/16 07:28:52;;;;;;;9.30;8.02;;;;;;;;;;5062737;28;20032;-72
2021/08/16 07:31:18;;;;;;;8.70;7.90;;;;;;;;;;5066755;28;20036;-72
2021/08/16 07:33:45;;;;;;;11.82;8.32;;;;;;;;;;5067685;28;20032;-72
2021/08/16 07:36:11;;;;;;;9.77;8.40;;;;;;;;;;5065180;28;20032;-72
2021/08/16 07:38:37;;;;;;;12.23;7.93;;;;;;;;;;5064933;28;20050;-72
2021/08/16 07:41:03;;;;;;;9.38;8.23;;;;;;;;;;5067785;28;20024;-73
2021/08/16 07:43:29;;;;;;;8.75;7.95;;;;;;;;;;5063780;28;20461;-73
2021/08/16 07:45:55;;;;;;;11.25;7.97;;;;;;;;;;5066207;28;20484;-71
2021/08/16 07:48:21;;;;;;;10.90;8.10;;;;;;;;;;5060659;28;20105;-72
2021/08/16 07:50:48;;;;;;;9.07;7.88;;;;;;;;;;5071382;28;20034;-72
2021/08/16 07:53:14;;;;;;;11.10;7.93;;;;;;;;;;5069372;28;20074;-72
2021/08/16 07:55:40;;;;;;;14.25;9.15;;;;;;;;;;5067758;28;20057;-73
2021/08/16 07:58:06;;;;;;;9.50;8.13;;;;;;;;;;5071240;28;20815;-72
2021/08/16 08:00:33;;;;;;;10.95;8.45;;;;;;;;;;5074321;28;20557;-72
2021/08/16 08:02:59;;;;;;;10.10;8.35;;;;;;;;;;5065597;28;20025;-72
2021/08/16 08:05:25;;;;;;;8.77;7.97;;;;;;;;;;5064246;28;20012;-72
2021/08/16 08:07:52;;;;;;;8.68;7.82;;;;;;;;;;5064240;28;20361;-71
2021/08/16 08:10:19;;;;;;;8.90;7.82;;;;;;;;;;5067059;28;20021;-72
2021/08/16 08:12:46;;;;;;;9.10;8.25;;;;;;;;;;5064421;28;20024;-72
2021/08/16 08:15:13;;;;;;;10.65;8.60;;;;;;;;;;5062691;28;20389;-72
2021/08/16 08:17:39;;;;;;;10.82;8.93;;;;;;;;;;5065223;28;20055;-72
2021/08/16 08:20:07;;;;;;;10.48;8.57;;;;;;;;;;5069537;28;20500;-72
2021/08/16 08:22:34;;;;;;;8.82;7.93;;;;;;;;;;5068150;28;20090;-72
2021/08/16 08:25:00;;;;;;;9.00;8.10;;;;;;;;;;5064407;28;20036;-72
2021/08/16 08:27:27;;;;;;;10.88;8.30;;;;;;;;;;5070907;28;20021;-72
2021/08/16 08:29:53;;;;;;;10.02;8.38;;;;;;;;;;5066917;28;20028;-72
2021/08/16 08:32:19;;;;;;;12.32;8.35;;;;;;;;;;5071102;28;20042;-72
2021/08/16 08:34:45;;;;;;;9.32;7.95;;;;;;;;;;5071735;28;20036;-72
2021/08/16 08:37:13;;;;;;;9.35;8.45;;;;;;;;;;5069521;28;20028;-73
2021/08/16 08:39:43;;;;;;;9.20;8.27;;;;;;;;;;5068009;28;21177;-72
2021/08/16 08:42:12;;;;;;;9.73;8.73;;;;;;;;;;5069547;28;20040;-72
2021/08/16 08:44:39;;;;;;;11.02;8.93;;;;;;;;;;5069991;28;20062;-72
2021/08/16 08:47:06;;;;;;;9.35;8.32;;;;;;;;;;5067318;28;20021;-72
2021/08/16 08:49:32;;;;;;;11.15;8.73;;;;;;;;;;5068291;28;20048;-72
2021/08/16 08:51:59;;;;;;;10.35;8.82;;;;;;;;;;5063483;28;20024;-72
2021/08/16 08:54:26;;;;;;;9.20;8.40;;;;;;;;;;5065122;28;20032;-72
2021/08/16 08:56:52;;;;;;;10.50;9.02;;;;;;;;;;5064063;28;20052;-71
2021/08/16 08:59:18;;;;;;;10.05;8.35;;;;;;;;;;5064792;28;20033;-71
2021/08/16 09:01:54;;;;;;;9.25;8.43;;;;;;;;;;5062246;28;20111;-72
2021/08/16 09:04:20;;;;;;;8.90;7.95;;;;;;;;;;5065178;28;20028;-72
2021/08/16 09:06:47;;;;;;;9.10;8.20;;;;;;;;;;5064559;28;20393;-72
2021/08/16 09:09:13;;;;;;;8.57;7.78;;;;;;;;;;5068100;28;20461;-71
2021/08/16 09:11:42;;;;;;;8.77;7.97;;;;;;;;;;5063967;28;20496;-72
2021/08/16 09:14:09;;;;;;;9.45;8.63;;;;;;;;;;5067122;28;20112;-71
2021/08/16 09:16:36;;;;;;;8.73;7.85;;;;;;;;;;5061912;28;20025;-71
2021/08/16 09:19:32;;;;;;;9.13;8.23;;;;;;;;;;5064611;28;20070;-71
2021/08/16 09:22:07;;;;;;;12.50;8.48;;;;;;;;;;5052172;28;20439;-72
2021/08/16 09:24:35;;;;;;;16.30;8.77;;;;;;;;;;5071246;28;20032;-71
2021/08/16 09:27:05;;;;;;;8.93;7.72;;;;;;;;;;5061797;28;20549;-72
2021/08/16 09:29:32;;;;;;;10.23;7.60;;;;;;;;;;5064579;28;20024;-69
2021/08/16 09:32:01;;;;;;;8.63;7.50;;;;;;;;;;5064887;28;20040;-69
2021/08/16 09:34:29;;;;;;;8.68;7.85;;;;;;;;;;5070592;28;20024;-69
2021/08/16 09:37:00;;;;;;;10.20;7.43;;;;;;;;;;5061250;28;20024;-69
2021/08/16 09:39:27;;;;;;;12.10;8.10;;;;;;;;;;5063886;28;20058;-72
2021/08/16 09:41:57;;;;;;;9.30;8.13;;;;;;;;;;5070332;28;20474;-69
2021/08/16 09:44:24;;;;;;;8.57;7.73;;;;;;;;;;5066771;28;20103;-70
2021/08/16 09:47:06;;;;;;;8.50;7.60;;;;;;;;;;5063876;28;20031;-69
2021/08/16 09:49:33;;;;;;;8.68;7.80;;;;;;;;;;5064936;28;20121;-71
2021/08/16 09:52:05;;;;;;;8.55;7.60;;;;;;;;;;5063559;28;20214;-70
2021/08/16 09:54:32;;;;;;;8.40;7.50;;;;;;;;;;5069311;28;20335;-69
2021/08/16 09:57:00;;;;;;;8.65;7.50;;;;;;;;;;5063737;28;20463;-69
2021/08/16 09:59:26;;;;;;;8.80;7.90;;;;;;;;;;5063305;28;20030;-70
2021/08/16 10:01:53;;;;;;;9.02;7.75;;;;;;;;;;5062584;28;20025;-70
2021/08/16 10:04:19;;;;;;;9.57;7.68;;;;;;;;;;5064516;28;20804;-69
2021/08/16 10:06:45;;;;;;;8.75;7.57;;;;;;;;;;5064401;28;20024;-71
2021/08/16 10:09:12;;;;;;;8.70;7.80;;;;;;;;;;5063293;28;20029;-70
2021/08/16 10:11:38;;;;;;;9.88;7.97;;;;;;;;;;5061006;28;20036;-69
2021/08/16 10:14:05;;;;;;;9.00;8.07;;;;;;;;;;5062164;28;20029;-69
2021/08/16 10:16:33;;;;;;;8.95;7.65;;;;;;;;;;5062577;28;20039;-73
2021/08/16 10:19:03;;;;;;;8.23;7.43;;;;;;;;;;5062876;28;20399;-69
2021/08/16 10:21:29;;;;;;;7.88;6.90;;;;;;;;;;5064224;28;20036;-69
2021/08/16 10:23:56;;;;;;;10.43;8.10;;;;;;;;;;5070707;28;20048;-69
2021/08/16 10:26:28;;;;;;;8.23;7.45;;;;;;;;;;5068922;28;20539;-69
2021/08/16 10:29:14;;;;;;;8.35;7.55;;;;;;;;;;5062550;28;20041;-74
2021/08/16 10:31:43;;;;;;;8.60;7.80;;;;;;;;;;5060210;28;20027;-70
2021/08/16 10:34:09;;;;;;;8.48;7.68;;;;;;;;;;5067009;28;20043;-73
2021/08/16 10:36:35;;;;;;;9.25;7.90;;;;;;;;;;5063925;28;20024;-69
2021/08/16 10:39:03;;;;;;;11.43;8.15;;;;;;;;;;5065600;28;20032;-69
2021/08/16 10:41:30;;;;;;;9.05;8.15;;;;;;;;;;5069757;28;20487;-73
2021/08/16 10:43:57;;;;;;;9.48;8.20;;;;;;;;;;5064758;28;20059;-69
2021/08/16 10:46:24;;;;;;;9.90;8.90;;;;;;;;;;5063211;28;20031;-68
2021/08/16 10:49:00;;;;;;;10.43;8.38;;;;;;;;;;5064335;28;20048;-68
2021/08/16 10:51:26;;;;;;;8.50;7.70;;;;;;;;;;5066396;28;20066;-68
2021/08/16 10:53:54;;;;;;;12.05;8.45;;;;;;;;;;5065454;28;20028;-70
2021/08/16 10:56:21;;;;;;;8.98;7.78;;;;;;;;;;5063425;28;20028;-70
2021/08/16 10:58:48;;;;;;;10.48;8.30;;;;;;;;;;5064444;28;20544;-69
2021/08/16 11:01:14;;;;;;;9.95;8.10;;;;;;;;;;5061678;28;20043;-69
2021/08/16 11:03:41;;;;;;;9.00;8.10;;;;;;;;;;5062380;28;20024;-69
2021/08/16 11:06:07;;;;;;;9.50;8.20;;;;;;;;;;5066211;28;20250;-69
2021/08/16 11:08:33;;;;;;;10.18;8.60;;;;;;;;;;5065804;28;20025;-69
2021/08/16 11:11:06;;;;;;;10.38;9.13;;;;;;;;;;5060810;28;20029;-68
2021/08/16 11:13:33;;;;;;;8.80;7.95;;;;;;;;;;5065437;28;20032;-68
2021/08/16 11:16:04;;;;;;;9.25;8.35;;;;;;;;;;5063813;28;20035;-68
2021/08/16 11:18:30;;;;;;;9.00;8.05;;;;;;;;;;5062188;28;20425;-68
2021/08/16 11:21:01;;;;;;;9.20;8.30;;;;;;;;;;5067820;28;20512;-68
2021/08/16 11:23:27;;;;;;;11.70;8.73;;;;;;;;;;5061458;28;20401;-69
2021/08/16 11:25:55;;;;;;;9.68;8.65;;;;;;;;;;5065564;28;20432;-68
2021/08/16 11:28:25;;;;;;;12.50;9.15;;;;;;;;;;5071509;28;20020;-69
2021/08/16 11:31:00;;;;;;;11.40;9.38;;;;;;;;;;5066777;28;20484;-69
2021/08/16 11:33:26;;;;;;;9.10;8.30;;;;;;;;;;5063881;28;20020;-69
2021/08/16 11:36:08;;;;;;;10.25;8.85;;;;;;;;;;5069886;28;20167;-69
2021/08/16 11:38:34;;;;;;;10.60;9.07;;;;;;;;;;5067907;28;20474;-69
2021/08/16 11:41:07;;;;;;;10.63;9.35;;;;;;;;;;5066685;28;20027;-69
2021/08/16 11:43:34;;;;;;;11.00;8.55;;;;;;;;;;5067145;28;20044;-72
2021/08/16 11:46:10;;;;;;;9.70;8.70;;;;;;;;;;5064904;28;20573;-69
2021/08/16 11:48:36;;;;;;;9.68;8.80;;;;;;;;;;5070768;28;20028;-69
2021/08/16 11:51:03;;;;;;;10.15;8.43;;;;;;;;;;5068236;28;20558;-71
2021/08/16 11:53:43;;;;;;;9.00;8.02;;;;;;;;;;5063567;28;20074;-70
2021/08/16 11:56:09;;;;;;;12.05;8.23;;;;;;;;;;5068119;28;20586;-70
2021/08/16 11:58:39;;;;;;;9.60;8.60;;;;;;;;;;5074667;28;20024;-71
2021/08/16 12:01:06;;;;;;;9.30;8.30;;;;;;;;;;5067887;28;20028;-70
2021/08/16 12:03:35;;;;;;;11.18;8.52;;;;;;;;;;5065764;28;20040;-70
2021/08/16 12:06:02;;;;;;;12.95;8.77;;;;;;;;;;5064360;28;20024;-71
2021/08/16 12:08:29;;;;;;;9.27;8.38;;;;;;;;;;5069849;28;20056;-71
2021/08/16 12:10:55;;;;;;;8.60;7.90;;;;;;;;;;5068938;28;20035;-72
2021/08/16 12:13:23;;;;;;;8.20;7.40;;;;;;;;;;5069523;28;20039;-71
2021/08/16 12:15:50;;;;;;;8.98;8.05;;;;;;;;;;5069259;28;20029;-71
2021/08/16 12:18:16;;;;;;;9.00;7.32;;;;;;;;;;5065106;28;20036;-71
2021/08/16 12:20:49;;;;;;;9.13;7.38;;;;;;;;;;5067940;28;20067;-72
2021/08/16 12:23:26;;;;;;;11.70;7.95;;;;;;;;;;5071633;28;20036;-73
2021/08/16 12:25:53;;;;;;;9.85;8.13;;;;;;;;;;5069458;28;20035;-72
2021/08/16 12:28:19;;;;;;;11.50;8.20;;;;;;;;;;5068997;28;20128;-73
2021/08/16 12:30:45;;;;;;;8.52;7.72;;;;;;;;;;5065304;28;20024;-73
2021/08/16 12:33:11;;;;;;;8.38;7.60;;;;;;;;;;5067838;28;20559;-72
2021/08/16 12:35:37;;;;;;;10.70;8.13;;;;;;;;;;5066089;28;20069;-71
2021/08/16 12:38:04;;;;;;;9.50;7.28;;;;;;;;;;5067521;28;20530;-72
2021/08/16 12:40:30;;;;;;;7.68;6.88;;;;;;;;;;5066196;28;20041;-71
2021/08/16 12:43:01;;;;;;;7.50;6.70;;;;;;;;;;5068531;28;20037;-72
2021/08/16 12:45:27;;;;;;;9.88;6.95;;;;;;;;;;5066606;28;20164;-72
2021/08/16 12:48:03;;;;;;;12.07;7.22;;;;;;;;;;5063196;28;20028;-72
2021/08/16 12:50:30;;;;;;;7.22;6.53;;;;;;;;;;5066770;28;20790;-72
2021/08/16 12:52:57;;;;;;;7.50;6.80;;;;;;;;;;5065825;28;20755;-72
2021/08/16 12:55:23;;;;;;;7.15;6.45;;;;;;;;;;5062843;28;20047;-72
2021/08/16 12:57:50;;;;;;;8.10;7.30;;;;;;;;;;5065293;28;20933;-72
2021/08/16 13:00:16;;;;;;;6.65;5.93;;;;;;;;;;5072803;28;20391;-72
2021/08/16 13:02:43;;;;;;;9.73;6.82;;;;;;;;;;5079525;28;20059;-72
2021/08/16 13:05:09;;;;;;;8.63;6.78;;;;;;;;;;5069077;28;20033;-70
2021/08/16 13:07:35;;;;;;;8.38;6.82;;;;;;;;;;5064473;28;20117;-72
2021/08/16 13:10:02;;;;;;;7.47;6.68;;;;;;;;;;5065690;28;20212;-73
2021/08/16 13:12:31;;;;;;;11.10;7.25;;;;;;;;;;5065056;28;20433;-73
2021/08/16 13:14:58;;;;;;;10.80;7.40;;;;;;;;;;5070711;28;20609;-73
2021/08/16 13:17:24;;;;;;;11.43;7.38;;;;;;;;;;5069447;28;20028;-73
2021/08/16 13:19:51;;;;;;;6.90;6.22;;;;;;;;;;5070797;28;20040;-73
2021/08/16 13:22:17;;;;;;;7.30;6.47;;;;;;;;;;5069805;28;20550;-71
2021/08/16 13:24:43;;;;;;;8.02;5.70;;;;;;;;;;5064727;28;20514;-72
2021/08/16 13:27:09;;;;;;;7.88;6.60;;;;;;;;;;5069077;28;20395;-72
2021/08/16 13:29:35;;;;;;;7.30;5.60;;;;;;;;;;5072561;28;20038;-72
2021/08/16 13:32:02;;;;;;;6.72;6.03;;;;;;;;;;5073451;28;20027;-73
2021/08/16 13:34:28;;;;;;;7.28;5.97;;;;;;;;;;5064953;28;20028;-72
2021/08/16 13:36:55;;;;;;;8.52;6.85;;;;;;;;;;5065261;28;20124;-72
2021/08/16 13:39:22;;;;;;;7.60;6.03;;;;;;;;;;5063073;28;20447;-72
2021/08/16 13:41:48;;;;;;;7.32;5.97;;;;;;;;;;5070724;28;20495;-72
2021/08/16 13:44:15;;;;;;;9.60;6.50;;;;;;;;;;5068691;28;20055;-72
2021/08/16 13:46:41;;;;;;;7.88;6.22;;;;;;;;;;5061953;28;20046;-72
2021/08/16 13:49:07;;;;;;;7.97;6.55;;;;;;;;;;5063363;28;20081;-73
2021/08/16 13:51:35;;;;;;;6.68;6.05;;;;;;;;;;5069844;28;20636;-73
2021/08/16 13:54:02;;;;;;;7.55;6.57;;;;;;;;;;5064942;28;20086;-73
2021/08/16 13:56:28;;;;;;;7.72;6.93;;;;;;;;;;5060498;28;20477;-73
2021/08/16 13:58:54;;;;;;;7.40;6.05;;;;;;;;;;5065199;28;20028;-73
2021/08/16 14:01:20;;;;;;;8.13;7.10;;;;;;;;;;5064905;28;20032;-73
2021/08/16 14:03:46;;;;;;;8.85;6.90;;;;;;;;;;5070535;28;20028;-73
2021/08/16 14:06:13;;;;;;;7.43;6.65;;;;;;;;;;5064332;28;20108;-73
2021/08/16 14:08:39;;;;;;;7.38;6.68;;;;;;;;;;5067072;28;20020;-73
2021/08/16 14:11:05;;;;;;;7.75;6.50;;;;;;;;;;5065635;28;20090;-73
2021/08/16 14:13:32;;;;;;;6.78;6.18;;;;;;;;;;5072617;28;20508;-72
2021/08/16 14:15:58;;;;;;;10.50;6.70;;;;;;;;;;5068361;28;20436;-73
2021/08/16 14:18:24;;;;;;;9.05;6.60;;;;;;;;;;5066289;28;20044;-72
2021/08/16 14:20:51;;;;;;;6.95;6.25;;;;;;;;;;5067476;28;20028;-72
2021/08/16 14:23:17;;;;;;;8.00;7.15;;;;;;;;;;5071277;28;20027;-72
2021/08/16 14:25:43;;;;;;;7.00;6.18;;;;;;;;;;5063832;28;20041;-72
2021/08/16 14:28:09;;;;;;;7.10;6.40;;;;;;;;;;5065769;28;20024;-72
2021/08/16 14:30:38;;;;;;;7.85;6.47;;;;;;;;;;5063482;28;20039;-72
2021/08/16 14:33:05;;;;;;;9.13;6.07;;;;;;;;;;5068721;28;20050;-72
2021/08/16 14:35:31;;;;;;;8.20;6.43;;;;;;;;;;5060296;28;20047;-72
2021/08/16 14:37:57;;;;;;;6.60;6.00;;;;;;;;;;5062029;28;20020;-72